createdAt,value
2023-05-13T00:00:55.854Z,12.60
2023-05-13T00:01:57.973Z,14.70
2023-05-13T00:03:00.170Z,17.20
2023-05-13T00:04:03.172Z,11.40
2023-05-13T00:05:08.439Z,10.10
2023-05-13T00:06:11.521Z,12.60
2023-05-13T00:07:13.813Z,12.00
2023-05-13T00:08:15.973Z,14.70
2023-05-13T00:09:18.258Z,18.30
2023-05-13T00:10:21.110Z,11.40
2023-05-13T00:11:23.888Z,11.91
2023-05-13T00:12:25.829Z,16.50
2023-05-13T00:17:48.911Z,15.70
2023-05-13T00:18:51.304Z,17.90
2023-05-13T00:19:53.714Z,15.70
2023-05-13T00:20:56.409Z,14.40
2023-05-13T00:21:58.652Z,12.80
2023-05-13T00:23:00.744Z,16.30
2023-05-13T00:24:06.098Z,12.90
2023-05-13T00:25:09.256Z,17.00
2023-05-13T00:26:11.779Z,17.40
2023-05-13T00:27:13.757Z,16.50
2023-05-13T00:28:15.766Z,16.30
2023-05-13T00:29:17.940Z,13.78
2023-05-13T00:30:20.769Z,18.55
2023-05-13T00:31:23.613Z,16.80
2023-05-13T00:32:26.319Z,14.60
2023-05-13T00:33:29.573Z,19.00
2023-05-13T00:34:31.536Z,16.90
2023-05-13T00:35:33.666Z,17.40
2023-05-13T00:36:36.069Z,18.50
2023-05-13T00:37:38.860Z,17.80
2023-05-13T00:38:41.163Z,20.70
2023-05-13T00:39:43.297Z,19.50
2023-05-13T00:40:46.659Z,16.30
2023-05-13T00:41:49.217Z,18.30
2023-05-13T00:42:51.199Z,20.10
2023-05-13T00:43:57.060Z,18.50
2023-05-13T00:44:59.155Z,17.50
2023-05-13T00:46:01.434Z,21.60
2023-05-13T00:47:05.404Z,20.30
2023-05-13T00:48:08.002Z,21.80
2023-05-13T00:49:10.288Z,20.10
2023-05-13T00:50:13.960Z,19.45
2023-05-13T00:51:16.263Z,22.20
2023-05-13T00:52:19.483Z,20.20
2023-05-13T00:53:21.985Z,18.40
2023-05-13T00:54:25.154Z,21.64
2023-05-13T00:55:27.321Z,15.50
2023-05-13T00:56:29.788Z,19.40
2023-05-13T00:57:32.394Z,14.70
2023-05-13T00:58:34.549Z,20.00
2023-05-13T00:59:36.608Z,15.70
2023-05-13T01:00:53.820Z,18.00
2023-05-13T01:02:13.961Z,18.20
2023-05-13T01:07:54.564Z,19.20
2023-05-13T01:08:59.806Z,19.90
2023-05-13T01:10:15.112Z,20.40
2023-05-13T01:11:20.963Z,24.30
2023-05-13T01:12:35.716Z,17.20
2023-05-13T01:13:38.124Z,13.20
2023-05-13T01:14:43.905Z,19.50
2023-05-13T01:17:18.693Z,20.60
2023-05-13T01:18:24.546Z,22.40
2023-05-13T01:19:44.600Z,24.80
2023-05-13T01:20:46.785Z,24.00
2023-05-13T01:21:52.832Z,20.70
2023-05-13T01:22:54.978Z,28.10
2023-05-13T01:23:57.272Z,17.80
2023-05-13T01:25:00.473Z,26.10
2023-05-13T01:26:03.439Z,23.09
2023-05-13T01:27:06.847Z,32.10
2023-05-13T01:28:08.875Z,20.60
2023-05-13T01:29:11.764Z,25.36
2023-05-13T01:30:14.668Z,21.18
2023-05-13T01:31:18.642Z,24.91
2023-05-13T01:32:23.114Z,21.10
2023-05-13T01:33:25.454Z,23.90
2023-05-13T01:34:28.935Z,17.90
2023-05-13T01:35:31.214Z,24.10
2023-05-13T01:36:34.763Z,24.40
2023-05-13T01:37:37.045Z,17.70
2023-05-13T01:38:39.241Z,23.30
2023-05-13T01:39:41.398Z,22.90
2023-05-13T01:40:45.385Z,23.10
2023-05-13T01:41:47.545Z,19.90
2023-05-13T01:42:49.733Z,24.80
2023-05-13T01:43:51.776Z,20.90
2023-05-13T01:44:53.922Z,26.20
2023-05-13T01:45:56.647Z,25.30
2023-05-13T01:46:59.975Z,21.30
2023-05-13T01:48:03.183Z,19.27
2023-05-13T01:49:07.391Z,26.40
2023-05-13T01:50:11.878Z,20.90
2023-05-13T01:51:15.662Z,20.90
2023-05-13T01:52:18.236Z,23.30
2023-05-13T01:53:21.086Z,20.55
2023-05-13T01:54:24.498Z,21.20
2023-05-13T01:55:28.432Z,21.60
2023-05-13T01:56:32.901Z,20.00
2023-05-13T01:57:35.117Z,22.40
2023-05-13T01:58:39.297Z,19.40
2023-05-13T01:59:41.294Z,20.30
2023-05-13T02:00:44.134Z,22.40
2023-05-13T02:01:48.096Z,14.10
2023-05-13T02:02:50.588Z,26.60
2023-05-13T02:03:52.972Z,18.70
2023-05-13T02:04:55.458Z,21.20
2023-05-13T02:05:58.136Z,21.40
2023-05-13T02:07:01.384Z,19.30
2023-05-13T02:08:08.183Z,14.50
2023-05-13T02:09:10.171Z,17.40
2023-05-13T02:10:14.435Z,16.20
2023-05-13T02:11:16.414Z,18.90
2023-05-13T02:12:18.521Z,18.90
2023-05-13T02:13:20.984Z,20.60
2023-05-13T02:14:23.055Z,10.90
2023-05-13T02:15:25.209Z,19.80
2023-05-13T02:16:27.670Z,18.60
2023-05-13T02:17:29.819Z,21.50
2023-05-13T02:18:32.251Z,18.10
2023-05-13T02:19:34.943Z,18.70
2023-05-13T02:20:37.477Z,17.20
2023-05-13T02:21:39.899Z,21.20
2023-05-13T02:22:43.952Z,19.20
2023-05-13T02:23:45.913Z,19.40
2023-05-13T02:24:48.089Z,20.00
2023-05-13T02:25:50.185Z,22.10
2023-05-13T02:26:52.931Z,20.60
2023-05-13T02:27:55.617Z,21.80
2023-05-13T02:28:58.527Z,20.30
2023-05-13T02:30:00.732Z,18.80
2023-05-13T02:31:02.971Z,17.80
2023-05-13T02:32:08.022Z,20.70
2023-05-13T02:33:10.344Z,20.00
2023-05-13T02:34:15.645Z,15.70
2023-05-13T02:35:20.533Z,19.40
2023-05-13T02:36:23.023Z,22.10
2023-05-13T02:37:25.524Z,20.40
2023-05-13T02:38:29.559Z,17.80
2023-05-13T02:39:32.824Z,23.00
2023-05-13T02:40:36.352Z,20.10
2023-05-13T02:41:39.752Z,14.20
2023-05-13T02:42:42.466Z,17.80
2023-05-13T02:43:45.899Z,18.60
2023-05-13T02:44:47.908Z,17.70
2023-05-13T02:45:50.365Z,18.90
2023-05-13T02:46:52.576Z,17.50
2023-05-13T02:47:55.325Z,18.10
2023-05-13T02:48:58.858Z,16.70
2023-05-13T02:50:04.896Z,17.50
2023-05-13T02:51:07.068Z,17.50
2023-05-13T02:52:09.212Z,17.90
2023-05-13T02:53:11.832Z,15.70
2023-05-13T02:54:15.822Z,14.20
2023-05-13T02:55:19.496Z,16.80
2023-05-13T02:56:22.077Z,20.00
2023-05-13T02:57:24.192Z,19.80
2023-05-13T02:58:26.961Z,22.00
2023-05-13T02:59:29.878Z,19.00
2023-05-13T03:00:33.054Z,16.50
2023-05-13T03:01:35.169Z,18.50
2023-05-13T03:02:37.912Z,17.60
2023-05-13T03:03:40.360Z,17.80
2023-05-13T03:04:42.741Z,13.60
2023-05-13T03:05:44.983Z,19.10
2023-05-13T03:06:51.210Z,14.70
2023-05-13T03:07:53.520Z,11.00
2023-05-13T03:08:55.612Z,15.70
2023-05-13T03:09:57.979Z,14.10
2023-05-13T03:11:01.457Z,11.30
2023-05-13T03:12:07.104Z,17.60
2023-05-13T03:13:09.043Z,17.40
2023-05-13T03:14:11.310Z,14.60
2023-05-13T03:15:14.751Z,14.30
2023-05-13T03:16:17.869Z,16.40
2023-05-13T03:17:24.368Z,19.70
2023-05-13T03:18:26.688Z,17.00
2023-05-13T03:19:29.068Z,18.70
2023-05-13T03:20:31.776Z,15.20
2023-05-13T03:21:34.953Z,17.73
2023-05-13T03:22:37.398Z,13.60
2023-05-13T03:23:40.182Z,17.00
2023-05-13T03:24:42.885Z,14.55
2023-05-13T03:25:45.559Z,13.60
2023-05-13T03:26:49.252Z,15.30
2023-05-13T03:27:51.462Z,17.00
2023-05-13T03:28:55.333Z,14.70
2023-05-13T03:30:01.628Z,13.60
2023-05-13T03:31:04.630Z,19.10
2023-05-13T03:32:08.872Z,15.50
2023-05-13T03:33:10.887Z,15.00
2023-05-13T03:34:12.903Z,13.67
2023-05-13T03:35:15.338Z,16.30
2023-05-13T03:36:19.139Z,12.30
2023-05-13T03:37:21.290Z,15.80
2023-05-13T03:38:24.119Z,18.20
2023-05-13T03:39:26.510Z,14.90
2023-05-13T03:40:28.635Z,17.30
2023-05-13T03:41:32.681Z,15.10
2023-05-13T03:42:34.811Z,15.70
2023-05-13T03:43:38.014Z,15.90
2023-05-13T03:44:42.055Z,12.50
2023-05-13T03:45:46.035Z,16.80
2023-05-13T03:46:49.241Z,16.30
2023-05-13T03:47:51.868Z,17.20
2023-05-13T03:48:54.675Z,21.36
2023-05-13T03:49:57.377Z,15.45
2023-05-13T03:51:01.334Z,19.10
2023-05-13T03:52:06.683Z,12.73
2023-05-13T03:53:10.150Z,16.50
2023-05-13T03:54:12.462Z,14.90
2023-05-13T03:55:16.004Z,16.40
2023-05-13T03:56:19.505Z,19.30
2023-05-13T03:57:21.623Z,15.90
2023-05-13T03:58:24.378Z,22.20
2023-05-13T03:59:26.392Z,14.90
2023-05-13T04:00:28.799Z,21.20
2023-05-13T04:01:31.046Z,16.00
2023-05-13T04:02:33.191Z,18.40
2023-05-13T04:03:36.279Z,16.27
2023-05-13T04:04:38.445Z,16.50
2023-05-13T04:05:43.844Z,15.60
2023-05-13T04:06:47.631Z,20.20
2023-05-13T04:07:49.705Z,19.00
2023-05-13T04:08:51.719Z,18.11
2023-05-13T04:09:53.860Z,13.30
2023-05-13T04:10:56.453Z,11.30
2023-05-13T04:12:00.396Z,13.00
2023-05-13T04:13:02.579Z,14.90
2023-05-13T04:14:04.701Z,17.50
2023-05-13T04:15:10.168Z,13.50
2023-05-13T04:16:12.421Z,14.30
2023-05-13T04:17:14.685Z,14.40
2023-05-13T04:18:17.305Z,13.50
2023-05-13T04:19:20.179Z,14.00
2023-05-13T04:20:22.932Z,12.70
2023-05-13T04:21:25.412Z,15.64
2023-05-13T04:22:27.456Z,13.90
2023-05-13T04:23:29.741Z,13.00
2023-05-13T04:24:33.018Z,13.10
2023-05-13T04:25:35.346Z,14.40
2023-05-13T04:26:37.945Z,12.10
2023-05-13T04:27:40.105Z,10.70
2023-05-13T04:28:44.330Z,13.00
2023-05-13T04:29:46.340Z,10.10
2023-05-13T04:30:49.070Z,13.50
2023-05-13T04:31:51.607Z,16.90
2023-05-13T04:32:54.313Z,14.45
2023-05-13T04:33:56.948Z,11.40
2023-05-13T04:35:00.223Z,10.50
2023-05-13T04:36:06.542Z,14.00
2023-05-13T04:37:08.593Z,11.00
2023-05-13T04:38:11.787Z,11.90
2023-05-13T04:39:14.646Z,15.55
2023-05-13T04:40:19.282Z,13.30
2023-05-13T04:41:23.078Z,12.80
2023-05-13T04:42:25.090Z,15.30
2023-05-13T04:43:27.247Z,13.00
2023-05-13T04:44:31.348Z,16.20
2023-05-13T04:45:33.835Z,13.00
2023-05-13T04:46:37.784Z,12.00
2023-05-13T04:47:40.404Z,15.45
2023-05-13T04:48:42.516Z,15.50
2023-05-13T04:49:45.551Z,11.91
2023-05-13T04:50:50.583Z,12.60
2023-05-13T04:51:53.697Z,15.90
2023-05-13T04:52:56.392Z,13.60
2023-05-13T04:53:58.758Z,10.10
2023-05-13T04:55:01.430Z,11.50
2023-05-13T04:56:07.762Z,14.00
2023-05-13T04:57:09.828Z,11.80
2023-05-13T04:58:12.027Z,10.10
2023-05-13T04:59:14.158Z,10.60
2023-05-13T05:00:17.959Z,11.70
2023-05-13T05:01:22.056Z,11.30
2023-05-13T05:02:25.944Z,8.30
2023-05-13T05:03:28.784Z,11.45
2023-05-13T05:04:31.323Z,8.80
2023-05-13T05:05:33.850Z,12.00
2023-05-13T05:06:36.993Z,7.60
2023-05-13T05:07:39.956Z,10.00
2023-05-13T05:08:42.935Z,11.50
2023-05-13T05:09:45.208Z,9.20
2023-05-13T05:10:47.798Z,9.50
2023-05-13T05:11:50.880Z,8.10
2023-05-13T05:12:54.801Z,9.60
2023-05-13T05:13:58.782Z,9.60
2023-05-13T05:15:00.897Z,14.20
2023-05-13T05:16:03.971Z,12.18
2023-05-13T05:17:08.060Z,9.70
2023-05-13T05:18:10.611Z,12.40
2023-05-13T05:19:14.685Z,5.80
2023-05-13T05:20:17.870Z,9.00
2023-05-13T05:21:23.688Z,3.10
2023-05-13T05:22:26.489Z,7.50
2023-05-13T05:23:28.671Z,9.55
2023-05-13T05:24:31.504Z,9.45
2023-05-13T05:25:33.640Z,9.00
2023-05-13T05:26:35.836Z,8.90
2023-05-13T05:27:38.920Z,6.60
2023-05-13T05:28:42.439Z,8.00
2023-05-13T05:29:44.490Z,7.70
2023-05-13T05:30:47.047Z,10.60
2023-05-13T05:31:53.912Z,7.00
2023-05-13T05:32:56.504Z,6.90
2023-05-13T05:33:59.249Z,8.09
2023-05-13T05:35:01.385Z,7.90
2023-05-13T05:36:07.181Z,8.90
2023-05-13T05:37:09.814Z,11.90
2023-05-13T05:38:13.773Z,10.90
2023-05-13T05:39:16.567Z,11.30
2023-05-13T05:40:21.936Z,7.82
2023-05-13T05:41:25.160Z,9.10
2023-05-13T05:42:27.339Z,10.50
2023-05-13T05:43:29.311Z,9.00
2023-05-13T05:44:31.418Z,9.70
2023-05-13T05:45:37.049Z,9.40
2023-05-13T05:46:40.779Z,7.00
2023-05-13T05:47:43.572Z,6.90
2023-05-13T05:48:47.271Z,9.00
2023-05-13T05:49:49.474Z,9.10
2023-05-13T05:50:52.290Z,7.64
2023-05-13T05:51:56.130Z,9.70
2023-05-13T05:53:00.270Z,8.30
2023-05-13T05:54:03.085Z,7.40
2023-05-13T05:55:09.548Z,7.30
2023-05-13T05:56:12.390Z,8.70
2023-05-13T05:57:14.440Z,7.90
2023-05-13T05:58:16.730Z,6.40
2023-05-13T05:59:19.133Z,7.40
2023-05-13T06:00:22.823Z,7.27
2023-05-13T06:01:25.240Z,8.20
2023-05-13T06:02:28.151Z,9.18
2023-05-13T06:03:30.747Z,7.64
2023-05-13T06:04:33.736Z,8.20
2023-05-13T06:05:36.168Z,9.20
2023-05-13T06:06:39.485Z,6.70
2023-05-13T06:07:42.126Z,8.18
2023-05-13T06:08:44.356Z,10.20
2023-05-13T06:09:46.374Z,10.20
2023-05-13T06:10:49.228Z,8.82
2023-05-13T06:11:52.018Z,9.30
2023-05-13T06:12:54.247Z,8.80
2023-05-13T06:13:56.605Z,8.80
2023-05-13T06:14:59.587Z,9.60
2023-05-13T06:16:01.859Z,9.90
2023-05-13T06:17:05.126Z,11.80
2023-05-13T06:18:07.796Z,8.10
2023-05-13T06:19:11.357Z,11.00
2023-05-13T06:20:15.080Z,10.80
2023-05-13T06:21:17.394Z,12.30
2023-05-13T06:22:19.548Z,9.90
2023-05-13T06:23:21.855Z,6.70
2023-05-13T06:24:24.849Z,6.55
2023-05-13T06:25:26.852Z,10.10
2023-05-13T06:26:29.075Z,10.10
2023-05-13T06:27:31.193Z,6.70
2023-05-13T06:28:33.321Z,10.60
2023-05-13T06:29:35.502Z,10.50
2023-05-13T06:30:38.058Z,12.00
2023-05-13T06:31:40.317Z,10.40
2023-05-13T06:32:53.571Z,10.60
2023-05-13T06:33:46.733Z,12.40
2023-05-13T06:34:48.824Z,10.10
2023-05-13T06:35:50.956Z,9.30
2023-05-13T06:36:55.508Z,9.00
2023-05-13T06:37:58.297Z,12.73
2023-05-13T06:39:00.386Z,11.80
2023-05-13T06:40:05.387Z,10.20
2023-05-13T06:41:09.494Z,6.60
2023-05-13T06:42:14.286Z,9.60
2023-05-13T06:49:05.536Z,17.70
2023-05-13T06:50:12.353Z,14.00
2023-05-13T06:51:14.455Z,12.70
2023-05-13T06:52:16.509Z,13.10
2023-05-13T06:53:18.520Z,15.10
2023-05-13T06:54:20.518Z,13.40
2023-05-13T06:55:22.733Z,10.30
2023-05-13T06:56:25.975Z,15.30
2023-05-13T06:57:41.298Z,10.20
2023-05-13T06:58:32.064Z,13.40
2023-05-13T06:59:35.960Z,17.50
2023-05-13T07:00:40.449Z,11.90
2023-05-13T07:01:42.670Z,13.50
2023-05-13T07:02:44.699Z,13.10
2023-05-13T07:03:47.054Z,11.10
2023-05-13T07:04:49.190Z,12.60
2023-05-13T07:05:51.404Z,14.20
2023-05-13T07:06:56.141Z,16.20
2023-05-13T07:07:58.188Z,13.20
2023-05-13T07:09:00.321Z,15.10
2023-05-13T07:10:02.636Z,12.50
2023-05-13T07:11:04.677Z,12.30
2023-05-13T07:12:06.746Z,17.70
2023-05-13T07:13:10.732Z,13.20
2023-05-13T07:14:12.985Z,14.20
2023-05-13T07:15:15.039Z,13.10
2023-05-13T07:16:17.238Z,10.10
2023-05-13T07:17:19.409Z,8.40
2023-05-13T07:18:21.791Z,11.60
2023-05-13T07:19:24.039Z,10.60
2023-05-13T07:20:26.892Z,11.30
2023-05-13T07:21:29.558Z,11.00
2023-05-13T07:22:31.606Z,10.80
2023-05-13T07:23:33.753Z,11.00
2023-05-13T07:24:35.760Z,9.90
2023-05-13T07:25:37.768Z,10.90
2023-05-13T07:26:40.055Z,10.00
2023-05-13T07:27:42.248Z,5.90
2023-05-13T07:28:44.564Z,6.90
2023-05-13T07:29:46.777Z,7.60
2023-05-13T07:30:48.990Z,9.20
2023-05-13T07:31:51.552Z,10.30
2023-05-13T07:32:54.222Z,8.20
2023-05-13T07:33:57.071Z,9.50
2023-05-13T07:34:59.035Z,8.40
2023-05-13T07:36:00.957Z,8.70
2023-05-13T07:37:02.936Z,9.50
2023-05-13T07:38:06.706Z,12.10
2023-05-13T07:39:08.965Z,10.60
2023-05-13T07:40:13.365Z,12.30
2023-05-13T07:41:15.821Z,9.60
2023-05-13T07:42:17.896Z,7.80
2023-05-13T07:43:19.998Z,8.30
2023-05-13T07:44:22.075Z,9.50
2023-05-13T07:45:24.386Z,11.10
2023-05-13T07:46:27.400Z,10.70
2023-05-13T07:47:29.485Z,10.40
2023-05-13T07:48:31.843Z,8.80
2023-05-13T07:49:33.863Z,8.10
2023-05-13T07:50:36.629Z,12.60
2023-05-13T07:51:39.969Z,7.20
2023-05-13T07:52:42.223Z,9.50
2023-05-13T07:53:44.772Z,9.00
2023-05-13T07:54:47.752Z,6.80
2023-05-13T07:55:49.968Z,8.70
2023-05-13T07:56:52.022Z,8.00
2023-05-13T07:57:54.139Z,7.50
2023-05-13T07:58:58.191Z,9.20
2023-05-13T08:00:00.378Z,7.20
2023-05-13T08:01:02.846Z,8.80
2023-05-13T08:02:06.656Z,8.50
2023-05-13T08:03:08.914Z,8.30
2023-05-13T08:04:11.797Z,7.00
2023-05-13T08:05:14.514Z,7.50
2023-05-13T08:06:16.529Z,7.20
2023-05-13T08:07:18.741Z,9.90
2023-05-13T08:08:20.645Z,8.00
2023-05-13T08:09:22.690Z,9.60
2023-05-13T08:10:26.761Z,5.90
2023-05-13T08:11:28.821Z,5.20
2023-05-13T08:12:30.992Z,7.90
2023-05-13T08:13:33.300Z,6.70
2023-05-13T08:14:35.988Z,9.20
2023-05-13T08:15:38.099Z,7.40
2023-05-13T08:16:41.064Z,8.09
2023-05-13T08:17:43.673Z,7.60
2023-05-13T08:18:46.980Z,9.90
2023-05-13T08:19:50.191Z,9.30
2023-05-13T08:20:53.408Z,7.40
2023-05-13T08:21:55.629Z,7.50
2023-05-13T08:22:57.795Z,7.30
2023-05-13T08:23:59.813Z,8.10
2023-05-13T08:25:02.070Z,7.40
2023-05-13T08:26:04.817Z,11.82
2023-05-13T08:27:06.909Z,5.50
2023-05-13T08:28:08.995Z,7.00
2023-05-13T08:29:10.980Z,7.10
2023-05-13T08:30:16.951Z,9.64
2023-05-13T08:31:19.028Z,7.30
2023-05-13T08:32:21.143Z,7.30
2023-05-13T08:33:24.009Z,8.55
2023-05-13T08:34:26.089Z,3.70
2023-05-13T08:35:28.993Z,5.00
2023-05-13T08:36:31.573Z,6.30
2023-05-13T08:37:33.560Z,6.10
2023-05-13T08:38:35.528Z,6.00
2023-05-13T08:39:37.605Z,7.90
2023-05-13T08:40:41.463Z,6.40
2023-05-13T08:41:44.243Z,8.10
2023-05-13T08:42:47.046Z,6.91
2023-05-13T08:43:49.617Z,7.27
2023-05-13T08:44:51.884Z,7.40
2023-05-13T08:45:55.252Z,6.20
2023-05-13T08:48:10.762Z,7.90
2023-05-13T08:49:13.270Z,5.50
2023-05-13T08:50:15.552Z,7.50
2023-05-13T08:51:18.444Z,7.18
2023-05-13T08:52:20.442Z,6.60
2023-05-13T08:53:22.437Z,5.70
2023-05-13T08:54:24.675Z,5.40
2023-05-13T08:55:26.762Z,8.20
2023-05-13T08:56:28.910Z,6.10
2023-05-13T08:57:30.947Z,8.30
2023-05-13T08:58:32.936Z,4.70
2023-05-13T08:59:34.847Z,8.50
2023-05-13T09:00:37.215Z,4.10
2023-05-13T09:01:39.393Z,4.90
2023-05-13T09:02:42.051Z,5.30
2023-05-13T09:03:54.236Z,6.80
2023-05-13T09:04:56.608Z,3.60
2023-05-13T09:06:02.060Z,6.80
2023-05-13T09:07:07.794Z,6.90
2023-05-13T09:08:09.959Z,8.90
2023-05-13T09:09:12.034Z,4.30
2023-05-13T09:10:15.137Z,6.00
2023-05-13T09:11:17.011Z,6.90
2023-05-13T09:12:48.150Z,3.30
2023-05-13T09:14:00.479Z,3.80
2023-05-13T09:15:05.897Z,4.20
2023-05-13T09:16:08.334Z,3.10
2023-05-13T09:17:10.747Z,2.30
2023-05-13T09:18:12.976Z,3.60
2023-05-13T09:19:16.324Z,3.90
2023-05-13T09:20:20.066Z,7.20
2023-05-13T09:21:26.107Z,4.30
2023-05-13T09:22:28.252Z,5.40
2023-05-13T09:23:30.546Z,4.40
2023-05-13T09:24:33.607Z,3.30
2023-05-13T09:25:38.618Z,4.40
2023-05-13T09:26:41.587Z,1.40
2023-05-13T09:27:52.641Z,3.00
2023-05-13T09:29:18.865Z,3.60
2023-05-13T09:30:21.551Z,2.00
2023-05-13T09:31:35.153Z,3.90
2023-05-13T09:32:38.538Z,2.80
2023-05-13T09:33:44.528Z,3.40
2023-05-13T09:34:47.434Z,3.70
2023-05-13T09:35:50.850Z,3.70
2023-05-13T09:37:03.649Z,2.70
2023-05-13T09:40:59.451Z,3.70
2023-05-13T09:42:04.291Z,2.50
2023-05-13T09:43:05.940Z,3.50
2023-05-13T09:44:07.979Z,3.90
2023-05-13T09:45:13.721Z,3.00
2023-05-13T09:46:16.134Z,5.30
2023-05-13T09:47:18.712Z,2.70
2023-05-13T09:49:31.019Z,4.10
2023-05-13T09:50:33.673Z,2.80
2023-05-13T09:51:35.622Z,3.00
2023-05-13T09:52:38.170Z,3.00
2023-05-13T09:53:40.189Z,2.50
2023-05-13T09:54:42.203Z,2.10
2023-05-13T09:55:52.261Z,3.70
2023-05-13T09:58:26.202Z,5.50
2023-05-13T09:59:33.254Z,2.00
2023-05-13T10:00:37.478Z,3.00
2023-05-13T10:01:39.972Z,2.00
2023-05-13T10:02:42.157Z,2.60
2023-05-13T10:03:44.232Z,3.70
2023-05-13T10:04:46.503Z,4.40
2023-05-13T10:05:48.499Z,3.40
2023-05-13T10:06:50.790Z,5.00
2023-05-13T10:07:52.808Z,3.89
2023-05-13T10:08:59.444Z,2.80
2023-05-13T10:10:02.404Z,2.70
2023-05-13T10:11:05.961Z,2.80
2023-05-13T10:12:09.767Z,5.00
2023-05-13T10:13:13.810Z,5.70
2023-05-13T10:14:15.962Z,3.30
2023-05-13T10:15:18.174Z,2.30
2023-05-13T10:16:23.213Z,3.90
2023-05-13T10:17:25.413Z,3.20
2023-05-13T10:18:27.609Z,5.70
2023-05-13T10:19:31.590Z,2.80
2023-05-13T10:20:34.125Z,2.70
2023-05-13T10:21:36.151Z,3.80
2023-05-13T10:22:40.172Z,2.60
2023-05-13T10:23:42.439Z,2.50
2023-05-13T10:24:44.728Z,2.60
2023-05-13T10:25:47.435Z,1.60
2023-05-13T10:26:50.826Z,3.36
2023-05-13T10:27:52.964Z,2.50
2023-05-13T10:28:55.121Z,2.60
2023-05-13T10:29:57.935Z,3.70
2023-05-13T10:31:00.214Z,1.80
2023-05-13T10:32:03.394Z,3.50
2023-05-13T10:33:05.996Z,4.00
2023-05-13T10:34:08.405Z,3.40
2023-05-13T10:35:13.082Z,4.80
2023-05-13T10:36:25.209Z,2.00
2023-05-13T10:37:46.222Z,4.10
2023-05-13T10:41:27.601Z,3.30
2023-05-13T10:42:39.439Z,3.40
2023-05-13T10:43:41.379Z,3.00
2023-05-13T10:44:43.434Z,2.20
2023-05-13T10:45:49.820Z,5.20
2023-05-13T10:46:52.193Z,2.90
2023-05-13T10:47:54.913Z,3.20
2023-05-13T10:48:58.974Z,4.09
2023-05-13T10:50:06.584Z,2.36
2023-05-13T10:51:09.587Z,2.90
2023-05-13T10:52:13.658Z,3.20
2023-05-13T10:53:23.893Z,2.50
2023-05-13T10:54:25.904Z,5.60
2023-05-13T10:55:27.918Z,2.50
2023-05-13T10:56:30.399Z,2.10
